sensor_id;sensor_type;location;lat;lon;timestamp;pressure;altitude;pressure_sealevel;temperature;humidity
31005;BME280;17676;52.254;4.490;2023-11-22T00:00:21;103173.50;;;8.37;100.00
31005;BME280;17676;52.254;4.490;2023-11-22T00:02:46;103157.31;;;8.46;100.00
31005;BME280;17676;52.254;4.490;2023-11-22T00:05:13;103175.09;;;8.49;100.00
31005;BME280;17676;52.254;4.490;2023-11-22T00:07:39;103171.28;;;8.61;100.00
31005;BME280;17676;52.254;4.490;2023-11-22T00:10:05;103169.28;;;8.63;100.00
31005;BME280;17676;52.254;4.490;2023-11-22T00:12:31;103197.00;;;8.65;100.00
31005;BME280;17676;52.254;4.490;2023-11-22T00:15:07;103196.00;;;8.66;100.00
31005;BME280;17676;52.254;4.490;2023-11-22T00:17:33;103209.41;;;8.77;100.00
31005;BME280;17676;52.254;4.490;2023-11-22T00:20:00;103212.22;;;8.66;100.00
31005;BME280;17676;52.254;4.490;2023-11-22T00:22:33;103216.91;;;8.64;100.00
31005;BME280;17676;52.254;4.490;2023-11-22T00:25:02;103217.31;;;8.59;100.00
31005;BME280;17676;52.254;4.490;2023-11-22T00:27:28;103212.91;;;8.58;100.00
31005;BME280;17676;52.254;4.490;2023-11-22T00:29:55;103203.25;;;8.56;100.00
31005;BME280;17676;52.254;4.490;2023-11-22T00:32:21;103198.81;;;8.55;100.00
31005;BME280;17676;52.254;4.490;2023-11-22T00:34:48;103203.50;;;8.53;100.00
31005;BME280;17676;52.254;4.490;2023-11-22T00:37:14;103210.88;;;8.51;100.00
31005;BME280;17676;52.254;4.490;2023-11-22T00:39:41;103204.66;;;8.50;100.00
31005;BME280;17676;52.254;4.490;2023-11-22T00:42:07;103211.16;;;8.48;100.00
31005;BME280;17676;52.254;4.490;2023-11-22T00:44:33;103209.03;;;8.51;100.00
31005;BME280;17676;52.254;4.490;2023-11-22T00:46:58;103202.03;;;8.39;100.00
31005;BME280;17676;52.254;4.490;2023-11-22T00:49:24;103214.69;;;8.48;100.00
31005;BME280;17676;52.254;4.490;2023-11-22T00:51:52;103215.56;;;8.49;100.00
31005;BME280;17676;52.254;4.490;2023-11-22T00:54:18;103209.72;;;8.44;100.00
31005;BME280;17676;52.254;4.490;2023-11-22T00:56:45;103214.41;;;8.42;100.00
31005;BME280;17676;52.254;4.490;2023-11-22T00:59:11;103203.44;;;8.34;100.00
31005;BME280;17676;52.254;4.490;2023-11-22T01:01:37;103215.97;;;8.44;100.00
31005;BME280;17676;52.254;4.490;2023-11-22T01:04:03;103211.69;;;8.42;100.00
31005;BME280;17676;52.254;4.490;2023-11-22T01:06:28;103199.28;;;8.30;100.00
31005;BME280;17676;52.254;4.490;2023-11-22T01:08:54;103213.69;;;8.40;100.00
31005;BME280;17676;52.254;4.490;2023-11-22T01:11:20;103201.88;;;8.31;100.00
31005;BME280;17676;52.254;4.490;2023-11-22T01:13:46;103212.25;;;8.36;100.00
31005;BME280;17676;52.254;4.490;2023-11-22T01:16:12;103192.03;;;8.21;100.00
31005;BME280;17676;52.254;4.490;2023-11-22T01:18:41;103193.94;;;8.19;100.00
31005;BME280;17676;52.254;4.490;2023-11-22T01:21:07;103204.75;;;8.19;100.00
31005;BME280;17676;52.254;4.490;2023-11-22T01:23:33;103189.50;;;8.08;100.00
31005;BME280;17676;52.254;4.490;2023-11-22T01:25:59;103190.94;;;8.12;100.00
31005;BME280;17676;52.254;4.490;2023-11-22T01:28:25;103186.41;;;8.13;100.00
31005;BME280;17676;52.254;4.490;2023-11-22T01:30:53;103176.56;;;8.02;100.00
31005;BME280;17676;52.254;4.490;2023-11-22T01:33:23;103171.31;;;8.01;100.00
31005;BME280;17676;52.254;4.490;2023-11-22T01:35:48;103178.41;;;8.02;100.00
31005;BME280;17676;52.254;4.490;2023-11-22T01:38:15;103168.03;;;7.97;100.00
31005;BME280;17676;52.254;4.490;2023-11-22T01:40:45;103162.22;;;8.02;100.00
31005;BME280;17676;52.254;4.490;2023-11-22T01:43:16;103163.34;;;7.99;100.00
31005;BME280;17676;52.254;4.490;2023-11-22T01:45:42;103182.41;;;8.07;100.00
31005;BME280;17676;52.254;4.490;2023-11-22T01:48:10;103173.88;;;8.02;100.00
31005;BME280;17676;52.254;4.490;2023-11-22T01:50:40;103162.66;;;7.97;100.00
31005;BME280;17676;52.254;4.490;2023-11-22T01:53:12;103163.03;;;7.93;100.00
31005;BME280;17676;52.254;4.490;2023-11-22T01:55:39;103161.22;;;7.93;100.00
31005;BME280;17676;52.254;4.490;2023-11-22T01:58:06;103136.41;;;7.79;100.00
31005;BME280;17676;52.254;4.490;2023-11-22T02:00:36;103146.94;;;7.82;100.00
31005;BME280;17676;52.254;4.490;2023-11-22T02:03:07;103149.88;;;7.69;100.00
31005;BME280;17676;52.254;4.490;2023-11-22T02:05:32;103142.44;;;7.62;100.00
31005;BME280;17676;52.254;4.490;2023-11-22T02:07:58;103146.25;;;7.59;100.00
31005;BME280;17676;52.254;4.490;2023-11-22T02:10:24;103123.66;;;7.51;100.00
31005;BME280;17676;52.254;4.490;2023-11-22T02:12:50;103130.75;;;7.52;100.00
31005;BME280;17676;52.254;4.490;2023-11-22T02:15:16;103131.81;;;7.40;100.00
31005;BME280;17676;52.254;4.490;2023-11-22T02:17:41;103131.06;;;7.38;100.00
31005;BME280;17676;52.254;4.490;2023-11-22T02:20:07;103130.63;;;7.33;100.00
31005;BME280;17676;52.254;4.490;2023-11-22T02:22:45;103117.47;;;7.19;100.00
31005;BME280;17676;52.254;4.490;2023-11-22T02:25:11;103119.63;;;7.25;100.00
31005;BME280;17676;52.254;4.490;2023-11-22T02:27:37;103113.00;;;7.29;100.00
31005;BME280;17676;52.254;4.490;2023-11-22T02:30:03;103097.44;;;7.12;100.00
31005;BME280;17676;52.254;4.490;2023-11-22T02:32:32;103088.75;;;7.08;100.00
31005;BME280;17676;52.254;4.490;2023-11-22T02:34:58;103087.78;;;7.09;100.00
31005;BME280;17676;52.254;4.490;2023-11-22T02:37:26;103092.50;;;7.17;100.00
31005;BME280;17676;52.254;4.490;2023-11-22T02:40:05;103081.09;;;7.04;100.00
31005;BME280;17676;52.254;4.490;2023-11-22T02:42:33;103093.19;;;7.09;100.00
31005;BME280;17676;52.254;4.490;2023-11-22T02:44:58;103089.28;;;7.02;100.00
31005;BME280;17676;52.254;4.490;2023-11-22T02:47:24;103081.47;;;6.99;100.00
31005;BME280;17676;52.254;4.490;2023-11-22T02:49:49;103076.19;;;6.98;100.00
31005;BME280;17676;52.254;4.490;2023-11-22T02:52:15;103070.31;;;7.04;100.00
31005;BME280;17676;52.254;4.490;2023-11-22T02:54:44;103073.72;;;7.06;100.00
31005;BME280;17676;52.254;4.490;2023-11-22T02:57:12;103065.91;;;7.03;100.00
31005;BME280;17676;52.254;4.490;2023-11-22T02:59:42;103056.13;;;7.02;100.00
31005;BME280;17676;52.254;4.490;2023-11-22T03:02:08;103052.13;;;6.96;100.00
31005;BME280;17676;52.254;4.490;2023-11-22T03:04:33;103038.94;;;6.93;100.00
31005;BME280;17676;52.254;4.490;2023-11-22T03:06:59;103062.28;;;6.93;100.00
31005;BME280;17676;52.254;4.490;2023-11-22T03:09:27;103059.91;;;6.99;100.00
31005;BME280;17676;52.254;4.490;2023-11-22T03:11:54;103066.88;;;7.02;100.00
31005;BME280;17676;52.254;4.490;2023-11-22T03:14:19;103055.84;;;7.05;100.00
31005;BME280;17676;52.254;4.490;2023-11-22T03:16:47;103051.72;;;7.01;100.00
31005;BME280;17676;52.254;4.490;2023-11-22T03:19:14;103054.16;;;7.04;100.00
31005;BME280;17676;52.254;4.490;2023-11-22T03:21:40;103060.44;;;7.14;100.00
31005;BME280;17676;52.254;4.490;2023-11-22T03:24:07;103060.94;;;7.19;100.00
31005;BME280;17676;52.254;4.490;2023-11-22T03:26:34;103075.22;;;7.19;100.00
31005;BME280;17676;52.254;4.490;2023-11-22T03:29:00;103067.56;;;7.15;100.00
31005;BME280;17676;52.254;4.490;2023-11-22T03:31:27;103081.41;;;7.10;100.00
31005;BME280;17676;52.254;4.490;2023-11-22T03:33:53;103104.28;;;7.16;100.00
31005;BME280;17676;52.254;4.490;2023-11-22T03:36:20;103102.81;;;7.12;100.00
31005;BME280;17676;52.254;4.490;2023-11-22T03:38:48;103106.63;;;7.09;100.00
31005;BME280;17676;52.254;4.490;2023-11-22T03:41:14;103097.44;;;7.12;100.00
31005;BME280;17676;52.254;4.490;2023-11-22T03:43:40;103117.19;;;7.22;100.00
31005;BME280;17676;52.254;4.490;2023-11-22T03:46:05;103104.97;;;7.18;100.00
31005;BME280;17676;52.254;4.490;2023-11-22T03:48:31;103106.97;;;7.16;100.00
31005;BME280;17676;52.254;4.490;2023-11-22T03:50:57;103100.78;;;7.25;100.00
31005;BME280;17676;52.254;4.490;2023-11-22T03:53:22;103109.59;;;7.27;100.00
31005;BME280;17676;52.254;4.490;2023-11-22T03:55:52;103097.38;;;7.23;100.00
31005;BME280;17676;52.254;4.490;2023-11-22T03:58:18;103104.94;;;7.29;100.00
31005;BME280;17676;52.254;4.490;2023-11-22T04:00:44;103110.75;;;7.34;100.00
31005;BME280;17676;52.254;4.490;2023-11-22T04:03:09;103115.94;;;7.26;100.00
31005;BME280;17676;52.254;4.490;2023-11-22T04:05:35;103124.03;;;7.26;100.00
31005;BME280;17676;52.254;4.490;2023-11-22T04:08:01;103116.75;;;7.17;100.00
31005;BME280;17676;52.254;4.490;2023-11-22T04:10:27;103124.56;;;7.20;100.00
31005;BME280;17676;52.254;4.490;2023-11-22T04:12:53;103135.34;;;7.20;100.00
31005;BME280;17676;52.254;4.490;2023-11-22T04:15:21;103140.97;;;7.17;100.00
31005;BME280;17676;52.254;4.490;2023-11-22T04:17:47;103145.38;;;7.18;100.00
31005;BME280;17676;52.254;4.490;2023-11-22T04:20:14;103139.06;;;7.08;100.00
31005;BME280;17676;52.254;4.490;2023-11-22T04:22:41;103126.44;;;7.08;100.00
31005;BME280;17676;52.254;4.490;2023-11-22T04:25:07;103123.16;;;7.05;100.00
31005;BME280;17676;52.254;4.490;2023-11-22T04:27:34;103122.19;;;7.06;100.00
31005;BME280;17676;52.254;4.490;2023-11-22T04:30:00;103140.06;;;7.07;100.00
31005;BME280;17676;52.254;4.490;2023-11-22T04:32:25;103146.94;;;7.00;100.00
31005;BME280;17676;52.254;4.490;2023-11-22T04:34:51;103143.34;;;7.10;100.00
31005;BME280;17676;52.254;4.490;2023-11-22T04:37:17;103125.34;;;7.11;100.00
31005;BME280;17676;52.254;4.490;2023-11-22T04:39:42;103132.44;;;7.12;100.00
31005;BME280;17676;52.254;4.490;2023-11-22T04:42:08;103136.13;;;7.11;100.00
31005;BME280;17676;52.254;4.490;2023-11-22T04:44:35;103138.66;;;7.12;100.00
31005;BME280;17676;52.254;4.490;2023-11-22T04:47:00;103135.00;;;7.13;100.00
31005;BME280;17676;52.254;4.490;2023-11-22T04:49:26;103133.66;;;7.19;100.00
31005;BME280;17676;52.254;4.490;2023-11-22T04:51:52;103132.19;;;7.15;100.00
31005;BME280;17676;52.254;4.490;2023-11-22T04:54:18;103125.06;;;7.14;100.00
31005;BME280;17676;52.254;4.490;2023-11-22T04:56:43;103146.50;;;7.15;100.00
31005;BME280;17676;52.254;4.490;2023-11-22T04:59:09;103147.22;;;7.17;100.00
31005;BME280;17676;52.254;4.490;2023-11-22T05:01:35;103150.25;;;7.24;100.00
31005;BME280;17676;52.254;4.490;2023-11-22T05:04:00;103146.13;;;7.20;100.00
31005;BME280;17676;52.254;4.490;2023-11-22T05:06:26;103148.16;;;7.27;100.00
31005;BME280;17676;52.254;4.490;2023-11-22T05:08:54;103130.88;;;7.30;100.00
31005;BME280;17676;52.254;4.490;2023-11-22T05:11:21;103148.22;;;7.37;100.00
31005;BME280;17676;52.254;4.490;2023-11-22T05:13:47;103145.31;;;7.29;100.00
31005;BME280;17676;52.254;4.490;2023-11-22T05:16:13;103130.28;;;7.26;100.00
31005;BME280;17676;52.254;4.490;2023-11-22T05:18:38;103125.75;;;7.27;100.00
31005;BME280;17676;52.254;4.490;2023-11-22T05:21:04;103136.53;;;7.27;100.00
31005;BME280;17676;52.254;4.490;2023-11-22T05:23:31;103122.06;;;7.28;100.00
31005;BME280;17676;52.254;4.490;2023-11-22T05:26:02;103109.84;;;7.24;100.00
31005;BME280;17676;52.254;4.490;2023-11-22T05:28:30;103105.66;;;7.31;100.00
31005;BME280;17676;52.254;4.490;2023-11-22T05:30:56;103113.78;;;7.20;100.00
31005;BME280;17676;52.254;4.490;2023-11-22T05:33:22;103117.19;;;7.22;100.00
31005;BME280;17676;52.254;4.490;2023-11-22T05:35:48;103135.09;;;7.23;100.00
31005;BME280;17676;52.254;4.490;2023-11-22T05:38:16;103119.69;;;7.14;100.00
31005;BME280;17676;52.254;4.490;2023-11-22T05:40:42;103131.28;;;7.25;100.00
31005;BME280;17676;52.254;4.490;2023-11-22T05:43:08;103133.09;;;7.25;100.00
31005;BME280;17676;52.254;4.490;2023-11-22T05:45:35;103127.97;;;7.22;100.00
31005;BME280;17676;52.254;4.490;2023-11-22T05:48:01;103129.41;;;7.26;100.00
31005;BME280;17676;52.254;4.490;2023-11-22T05:50:26;103143.16;;;7.23;100.00
31005;BME280;17676;52.254;4.490;2023-11-22T05:52:55;103137.28;;;7.18;100.00
31005;BME280;17676;52.254;4.490;2023-11-22T05:55:21;103158.84;;;7.18;100.00
31005;BME280;17676;52.254;4.490;2023-11-22T05:57:49;103177.75;;;7.07;100.00
31005;BME280;17676;52.254;4.490;2023-11-22T06:00:14;103194.59;;;7.20;100.00
31005;BME280;17676;52.254;4.490;2023-11-22T06:02:41;103198.28;;;7.19;100.00
31005;BME280;17676;52.254;4.490;2023-11-22T06:05:07;103205.84;;;7.14;100.00
31005;BME280;17676;52.254;4.490;2023-11-22T06:07:35;103237.16;;;7.26;100.00
31005;BME280;17676;52.254;4.490;2023-11-22T06:10:01;103227.91;;;7.19;100.00
31005;BME280;17676;52.254;4.490;2023-11-22T06:12:28;103237.91;;;7.28;100.00
31005;BME280;17676;52.254;4.490;2023-11-22T06:14:53;103249.38;;;7.30;100.00
31005;BME280;17676;52.254;4.490;2023-11-22T06:17:19;103247.69;;;7.29;100.00
31005;BME280;17676;52.254;4.490;2023-11-22T06:19:45;103251.59;;;7.25;100.00
31005;BME280;17676;52.254;4.490;2023-11-22T06:22:11;103247.69;;;7.29;100.00
31005;BME280;17676;52.254;4.490;2023-11-22T06:24:36;103232.88;;;7.23;100.00
31005;BME280;17676;52.254;4.490;2023-11-22T06:27:02;103222.22;;;7.22;100.00
31005;BME280;17676;52.254;4.490;2023-11-22T06:29:29;103207.06;;;7.21;100.00
31005;BME280;17676;52.254;4.490;2023-11-22T06:31:54;103221.53;;;7.20;100.00
31005;BME280;17676;52.254;4.490;2023-11-22T06:34:22;103220.50;;;7.00;100.00
31005;BME280;17676;52.254;4.490;2023-11-22T06:36:47;103219.63;;;7.00;100.00
31005;BME280;17676;52.254;4.490;2023-11-22T06:39:13;103215.47;;;7.07;100.00
31005;BME280;17676;52.254;4.490;2023-11-22T06:41:42;103208.88;;;6.89;100.00
31005;BME280;17676;52.254;4.490;2023-11-22T06:44:07;103222.97;;;6.92;100.00
31005;BME280;17676;52.254;4.490;2023-11-22T06:46:34;103224.91;;;6.90;100.00
31005;BME280;17676;52.254;4.490;2023-11-22T06:48:59;103218.94;;;6.87;100.00
31005;BME280;17676;52.254;4.490;2023-11-22T06:51:25;103219.28;;;6.93;100.00
31005;BME280;17676;52.254;4.490;2023-11-22T06:53:51;103229.34;;;6.80;100.00
31005;BME280;17676;52.254;4.490;2023-11-22T06:56:19;103237.78;;;6.87;100.00
31005;BME280;17676;52.254;4.490;2023-11-22T06:58:45;103228.63;;;6.67;100.00
31005;BME280;17676;52.254;4.490;2023-11-22T07:01:11;103253.22;;;6.52;100.00
31005;BME280;17676;52.254;4.490;2023-11-22T07:03:37;103268.84;;;6.69;100.00
31005;BME280;17676;52.254;4.490;2023-11-22T07:06:05;103262.53;;;6.59;100.00
31005;BME280;17676;52.254;4.490;2023-11-22T07:08:33;103281.94;;;6.62;100.00
31005;BME280;17676;52.254;4.490;2023-11-22T07:11:01;103263.88;;;6.64;100.00
31005;BME280;17676;52.254;4.490;2023-11-22T07:13:28;103265.56;;;6.54;100.00
31005;BME280;17676;52.254;4.490;2023-11-22T07:15:54;103255.91;;;6.63;100.00
31005;BME280;17676;52.254;4.490;2023-11-22T07:18:20;103247.09;;;6.50;100.00
31005;BME280;17676;52.254;4.490;2023-11-22T07:20:49;103244.16;;;6.64;100.00
31005;BME280;17676;52.254;4.490;2023-11-22T07:23:14;103247.56;;;6.66;100.00
31005;BME280;17676;52.254;4.490;2023-11-22T07:25:41;103243.94;;;6.67;100.00
31005;BME280;17676;52.254;4.490;2023-11-22T07:28:07;103279.03;;;6.54;100.00
31005;BME280;17676;52.254;4.490;2023-11-22T07:30:32;103275.69;;;6.29;100.00
31005;BME280;17676;52.254;4.490;2023-11-22T07:32:59;103281.84;;;6.31;100.00
31005;BME280;17676;52.254;4.490;2023-11-22T07:35:25;103271.81;;;6.55;100.00
31005;BME280;17676;52.254;4.490;2023-11-22T07:37:53;103290.75;;;6.53;100.00
31005;BME280;17676;52.254;4.490;2023-11-22T07:40:19;103298.44;;;6.36;100.00
31005;BME280;17676;52.254;4.490;2023-11-22T07:42:47;103292.78;;;6.17;100.00
31005;BME280;17676;52.254;4.490;2023-11-22T07:45:13;103298.56;;;6.12;100.00
31005;BME280;17676;52.254;4.490;2023-11-22T07:47:39;103298.44;;;6.36;100.00
31005;BME280;17676;52.254;4.490;2023-11-22T07:50:09;103302.63;;;6.51;100.00
31005;BME280;17676;52.254;4.490;2023-11-22T07:52:35;103312.31;;;6.64;100.00
31005;BME280;17676;52.254;4.490;2023-11-22T07:55:02;103301.13;;;6.58;100.00
31005;BME280;17676;52.254;4.490;2023-11-22T07:57:27;103301.16;;;6.80;100.00
31005;BME280;17676;52.254;4.490;2023-11-22T07:59:54;103292.94;;;6.92;100.00
31005;BME280;17676;52.254;4.490;2023-11-22T08:02:21;103306.78;;;6.88;100.00
31005;BME280;17676;52.254;4.490;2023-11-22T08:04:46;103305.19;;;6.96;100.00
31005;BME280;17676;52.254;4.490;2023-11-22T08:07:13;103310.94;;;6.92;100.00
31005;BME280;17676;52.254;4.490;2023-11-22T08:09:42;103311.91;;;6.91;100.00
31005;BME280;17676;52.254;4.490;2023-11-22T08:12:09;103324.66;;;6.67;100.00
31005;BME280;17676;52.254;4.490;2023-11-22T08:14:37;103334.69;;;6.76;100.00
31005;BME280;17676;52.254;4.490;2023-11-22T08:17:02;103346.88;;;7.02;100.00
31005;BME280;17676;52.254;4.490;2023-11-22T08:19:29;103360.47;;;6.67;100.00
31005;BME280;17676;52.254;4.490;2023-11-22T08:21:54;103359.88;;;6.64;100.00
31005;BME280;17676;52.254;4.490;2023-11-22T08:24:20;103371.34;;;6.66;100.00
31005;BME280;17676;52.254;4.490;2023-11-22T08:26:46;103379.81;;;6.61;100.00
31005;BME280;17676;52.254;4.490;2023-11-22T08:29:12;103377.50;;;6.79;100.00
31005;BME280;17676;52.254;4.490;2023-11-22T08:31:37;103372.81;;;6.70;100.00
31005;BME280;17676;52.254;4.490;2023-11-22T08:34:04;103360.72;;;6.53;100.00
31005;BME280;17676;52.254;4.490;2023-11-22T08:36:32;103363.53;;;6.74;100.00
31005;BME280;17676;52.254;4.490;2023-11-22T08:39:00;103375.00;;;6.43;100.00
31005;BME280;17676;52.254;4.490;2023-11-22T08:41:27;103372.44;;;6.63;100.00
31005;BME280;17676;52.254;4.490;2023-11-22T08:43:55;103354.84;;;6.59;100.00
31005;BME280;17676;52.254;4.490;2023-11-22T08:46:20;103352.28;;;7.02;100.00
31005;BME280;17676;52.254;4.490;2023-11-22T08:48:49;103365.97;;;6.66;100.00
31005;BME280;17676;52.254;4.490;2023-11-22T08:51:18;103373.31;;;6.64;100.00
31005;BME280;17676;52.254;4.490;2023-11-22T08:53:44;103383.59;;;6.81;100.00
31005;BME280;17676;52.254;4.490;2023-11-22T08:56:10;103383.56;;;6.48;100.00
31005;BME280;17676;52.254;4.490;2023-11-22T08:58:39;103387.38;;;6.67;100.00
31005;BME280;17676;52.254;4.490;2023-11-22T09:01:06;103364.78;;;6.92;100.00
31005;BME280;17676;52.254;4.490;2023-11-22T09:03:33;103372.34;;;6.98;100.00
31005;BME280;17676;52.254;4.490;2023-11-22T09:05:59;103367.22;;;6.95;100.00
31005;BME280;17676;52.254;4.490;2023-11-22T09:08:26;103384.84;;;6.99;100.00
31005;BME280;17676;52.254;4.490;2023-11-22T09:10:52;103393.63;;;7.01;100.00
31005;BME280;17676;52.254;4.490;2023-11-22T09:13:19;103398.75;;;7.26;100.00
31005;BME280;17676;52.254;4.490;2023-11-22T09:15:45;103390.56;;;7.27;100.00
31005;BME280;17676;52.254;4.490;2023-11-22T09:18:11;103388.44;;;7.42;100.00
31005;BME280;17676;52.254;4.490;2023-11-22T09:20:39;103410.75;;;7.44;100.00
31005;BME280;17676;52.254;4.490;2023-11-22T09:23:09;103405.81;;;7.60;100.00
31005;BME280;17676;52.254;4.490;2023-11-22T09:25:35;103414.06;;;7.79;100.00
31005;BME280;17676;52.254;4.490;2023-11-22T09:28:01;103429.84;;;7.63;100.00
31005;BME280;17676;52.254;4.490;2023-11-22T09:30:29;103432.06;;;7.36;100.00
31005;BME280;17676;52.254;4.490;2023-11-22T09:33:07;103455.31;;;7.59;100.00
31005;BME280;17676;52.254;4.490;2023-11-22T09:35:34;103460.72;;;7.37;100.00
31005;BME280;17676;52.254;4.490;2023-11-22T09:38:02;103459.50;;;7.41;100.00
31005;BME280;17676;52.254;4.490;2023-11-22T09:40:34;103457.25;;;7.68;100.00
31005;BME280;17676;52.254;4.490;2023-11-22T09:43:04;103471.94;;;7.75;100.00
31005;BME280;17676;52.254;4.490;2023-11-22T09:45:30;103471.31;;;7.71;100.00
31005;BME280;17676;52.254;4.490;2023-11-22T09:47:57;103464.56;;;7.88;100.00
31005;BME280;17676;52.254;4.490;2023-11-22T09:53:13;103491.53;;;7.88;100.00
31005;BME280;17676;52.254;4.490;2023-11-22T09:55:43;103493.44;;;8.08;100.00
31005;BME280;17676;52.254;4.490;2023-11-22T09:58:12;103511.06;;;8.23;100.00
31005;BME280;17676;52.254;4.490;2023-11-22T10:00:40;103499.56;;;8.21;100.00
31005;BME280;17676;52.254;4.490;2023-11-22T10:03:06;103518.19;;;8.24;100.00
31005;BME280;17676;52.254;4.490;2023-11-22T10:05:33;103540.59;;;8.35;100.00
31005;BME280;17676;52.254;4.490;2023-11-22T10:08:02;103561.53;;;8.43;100.00
31005;BME280;17676;52.254;4.490;2023-11-22T10:10:30;103552.91;;;8.60;100.00
31005;BME280;17676;52.254;4.490;2023-11-22T10:12:57;103581.59;;;8.61;100.00
31005;BME280;17676;52.254;4.490;2023-11-22T10:15:28;103609.53;;;8.71;100.00
31005;BME280;17676;52.254;4.490;2023-11-22T10:20:38;103661.97;;;8.57;100.00
31005;BME280;17676;52.254;4.490;2023-11-22T10:23:14;103633.59;;;8.63;100.00
31005;BME280;17676;52.254;4.490;2023-11-22T10:25:53;103662.81;;;8.69;100.00
31005;BME280;17676;52.254;4.490;2023-11-22T10:28:33;103704.66;;;8.08;100.00
31005;BME280;17676;52.254;4.490;2023-11-22T10:30:59;103685.31;;;8.03;100.00
31005;BME280;17676;52.254;4.490;2023-11-22T10:33:39;103658.06;;;8.50;100.00
31005;BME280;17676;52.254;4.490;2023-11-22T10:36:07;103664.19;;;8.52;100.00
31005;BME280;17676;52.254;4.490;2023-11-22T10:38:36;103654.38;;;8.51;100.00
31005;BME280;17676;52.254;4.490;2023-11-22T10:41:10;103662.59;;;8.61;100.00
31005;BME280;17676;52.254;4.490;2023-11-22T10:43:39;103650.53;;;8.76;100.00
31005;BME280;17676;52.254;4.490;2023-11-22T10:46:09;103679.78;;;8.49;100.00
31005;BME280;17676;52.254;4.490;2023-11-22T10:48:44;103661.63;;;8.51;100.00
31005;BME280;17676;52.254;4.490;2023-11-22T10:51:17;103662.38;;;8.42;100.00
31005;BME280;17676;52.254;4.490;2023-11-22T10:53:49;103628.97;;;8.54;100.00
31005;BME280;17676;52.254;4.490;2023-11-22T10:56:17;103617.94;;;8.57;100.00
31005;BME280;17676;52.254;4.490;2023-11-22T10:58:49;103606.44;;;8.44;100.00
31005;BME280;17676;52.254;4.490;2023-11-22T11:01:21;103593.50;;;8.90;100.00
31005;BME280;17676;52.254;4.490;2023-11-22T11:03:55;103605.31;;;8.89;100.00
31005;BME280;17676;52.254;4.490;2023-11-22T11:06:25;103621.50;;;8.89;100.00
31005;BME280;17676;52.254;4.490;2023-11-22T11:08:56;103628.06;;;8.75;100.00
31005;BME280;17676;52.254;4.490;2023-11-22T11:11:23;103633.25;;;8.67;100.00
31005;BME280;17676;52.254;4.490;2023-11-22T11:13:51;103633.13;;;8.69;100.00
31005;BME280;17676;52.254;4.490;2023-11-22T11:16:17;103648.53;;;8.78;100.00
31005;BME280;17676;52.254;4.490;2023-11-22T11:18:43;103649.13;;;8.81;100.00
31005;BME280;17676;52.254;4.490;2023-11-22T11:21:09;103631.53;;;8.98;100.00
31005;BME280;17676;52.254;4.490;2023-11-22T11:23:39;103649.16;;;9.13;100.00
31005;BME280;17676;52.254;4.490;2023-11-22T11:26:20;103647.78;;;9.18;100.00
31005;BME280;17676;52.254;4.490;2023-11-22T11:28:50;103662.13;;;9.19;100.00
31005;BME280;17676;52.254;4.490;2023-11-22T11:31:22;103694.81;;;9.16;100.00
31005;BME280;17676;52.254;4.490;2023-11-22T11:36:30;103730.81;;;9.05;100.00
31005;BME280;17676;52.254;4.490;2023-11-22T11:39:01;103721.69;;;9.17;100.00
31005;BME280;17676;52.254;4.490;2023-11-22T11:41:32;103701.19;;;9.15;100.00
31005;BME280;17676;52.254;4.490;2023-11-22T11:44:00;103703.69;;;9.07;100.00
31005;BME280;17676;52.254;4.490;2023-11-22T11:46:26;103713.81;;;9.25;100.00
31005;BME280;17676;52.254;4.490;2023-11-22T11:48:55;103733.97;;;9.21;100.00
31005;BME280;17676;52.254;4.490;2023-11-22T11:51:27;103715.97;;;9.00;100.00
31005;BME280;17676;52.254;4.490;2023-11-22T11:53:53;103713.09;;;8.92;100.00
31005;BME280;17676;52.254;4.490;2023-11-22T11:56:19;103710.75;;;8.98;100.00
31005;BME280;17676;52.254;4.490;2023-11-22T11:58:46;103692.97;;;8.85;100.00
31005;BME280;17676;52.254;4.490;2023-11-22T12:01:16;103669.66;;;8.84;100.00
31005;BME280;17676;52.254;4.490;2023-11-22T12:03:42;103671.72;;;8.91;100.00
31005;BME280;17676;52.254;4.490;2023-11-22T12:06:09;103654.72;;;9.00;100.00
31005;BME280;17676;52.254;4.490;2023-11-22T12:08:35;103649.31;;;9.00;100.00
31005;BME280;17676;52.254;4.490;2023-11-22T12:11:02;103632.97;;;9.02;100.00
31005;BME280;17676;52.254;4.490;2023-11-22T12:13:29;103648.88;;;9.16;100.00
31005;BME280;17676;52.254;4.490;2023-11-22T12:15:55;103640.75;;;9.16;100.00
31005;BME280;17676;52.254;4.490;2023-11-22T12:18:22;103640.72;;;9.27;100.00
31005;BME280;17676;52.254;4.490;2023-11-22T12:20:54;103644.66;;;9.23;100.00
31005;BME280;17676;52.254;4.490;2023-11-22T12:23:21;103634.25;;;9.39;100.00
31005;BME280;17676;52.254;4.490;2023-11-22T12:25:54;103653.63;;;9.44;100.00
31005;BME280;17676;52.254;4.490;2023-11-22T12:28:25;103643.56;;;9.46;100.00
31005;BME280;17676;52.254;4.490;2023-11-22T12:30:51;103681.19;;;9.38;100.00
31005;BME280;17676;52.254;4.490;2023-11-22T12:33:17;103693.31;;;9.64;100.00
31005;BME280;17676;52.254;4.490;2023-11-22T12:35:46;103714.25;;;9.62;100.00
31005;BME280;17676;52.254;4.490;2023-11-22T12:38:12;103734.34;;;9.48;100.00
31005;BME280;17676;52.254;4.490;2023-11-22T12:40:42;103770.03;;;9.63;100.00
31005;BME280;17676;52.254;4.490;2023-11-22T12:43:08;103801.56;;;9.53;100.00
31005;BME280;17676;52.254;4.490;2023-11-22T12:45:35;103832.69;;;9.47;100.00
31005;BME280;17676;52.254;4.490;2023-11-22T12:48:20;103839.94;;;9.36;100.00
31005;BME280;17676;52.254;4.490;2023-11-22T12:50:48;103843.84;;;9.43;100.00
31005;BME280;17676;52.254;4.490;2023-11-22T12:53:15;103859.81;;;9.57;100.00
31005;BME280;17676;52.254;4.490;2023-11-22T12:55:45;103901.84;;;9.50;100.00
31005;BME280;17676;52.254;4.490;2023-11-22T12:58:18;103905.31;;;9.41;100.00